Terminal Aerodrome Forecast
Issued by NWS

Home | Current Version | Previous Version | Graphics & Text | Print | Product List | Glossary On
Versions: 1 2 3 4 5 6 7 8 9 10 11 12 13 14 15 16 17 18 19 20 21 22 23 24 25 26 27
000
FTUS43 KBIS 280200 AAB
TAFMOT
TAF AMD
KMOT 280252Z 2803/2824 05007KT P6SM BKN030
     FM280400 09004KT 4SM BR BKN015
     FM280600 15005KT 2SM BR OVC009
     FM281300 17009KT P6SM BKN011
     FM281600 17013KT P6SM BKN150
     FM281900 19019G28KT P6SM BKN230=

USA.gov is the U.S. government's official web portal to all federal, state and local government web resources and services.